Time;durP1;ratioP1;P1;durP2;ratioP2;P2;SDS_P1;SDS_P2;PMS_P1;PMS_P2;Temp;Humidity;BMP_temperature;BMP_pressure;BME280_temperature;BME280_humidity;BME280_pressure;Samples;Min_cycle;Max_cycle;Signal;HPM_P1;HPM_P2
2021/03/25 00:01:36;;;;;;;2.17;1.40;;;;;;;-7.58;75.53;93355.00;1843830;77;21058;-71
2021/03/25 00:04:04;;;;;;;4.80;1.67;;;;;;;-7.55;75.61;93359.72;1874141;75;21097;-71
2021/03/25 00:06:35;;;;;;;4.90;1.67;;;;;;;-7.50;75.71;93354.36;1860542;75;22305;-70
2021/03/25 00:09:07;;;;;;;4.17;1.60;;;;;;;-7.46;75.64;93350.62;1853369;76;21165;-71
2021/03/25 00:11:35;;;;;;;2.67;1.57;;;;;;;-7.43;75.57;93353.47;1845080;76;21650;-71
2021/03/25 00:14:03;;;;;;;2.40;1.40;;;;;;;-7.40;75.44;93351.59;1817330;75;21158;-71
2021/03/25 00:16:30;;;;;;;2.13;1.33;;;;;;;-7.38;75.28;93344.15;1900393;75;21129;-70
2021/03/25 00:19:00;;;;;;;3.27;1.63;;;;;;;-7.40;75.00;93341.02;1867176;75;21170;-71
2021/03/25 00:21:27;;;;;;;4.90;1.80;;;;;;;-7.48;75.02;93335.60;1863478;75;21137;-70
2021/03/25 00:23:57;;;;;;;5.00;1.70;;;;;;;-7.57;75.19;93332.80;1840805;76;21028;-71
2021/03/25 00:26:24;;;;;;;2.47;1.80;;;;;;;-7.60;75.38;93332.84;1830494;75;21050;-72
2021/03/25 00:28:52;;;;;;;3.13;1.50;;;;;;;-7.60;75.70;93332.84;1901928;75;21062;-70
2021/03/25 00:31:19;;;;;;;5.27;2.07;;;;;;;-7.53;75.85;93327.19;1830945;78;21751;-71
2021/03/25 00:33:47;;;;;;;3.87;2.57;;;;;;;-7.48;75.51;93327.68;1857119;77;21085;-71
2021/03/25 00:36:18;;;;;;;3.37;2.33;;;;;;;-7.60;75.39;93326.75;1846165;76;21092;-71
2021/03/25 00:38:45;;;;;;;2.57;1.60;;;;;;;-7.69;75.62;93329.25;1843159;76;21505;-70
2021/03/25 00:41:12;;;;;;;2.30;1.40;;;;;;;-7.70;75.58;93318.45;1858694;77;21101;-71
2021/03/25 00:43:41;;;;;;;1.87;1.67;;;;;;;-7.77;75.60;93323.28;1809557;79;21347;-71
2021/03/25 00:46:08;;;;;;;3.93;2.60;;;;;;;-7.84;76.01;93320.98;1892330;75;21066;-71
2021/03/25 00:48:36;;;;;;;2.73;1.60;;;;;;;-7.85;76.10;93319.42;1855378;75;21047;-70
2021/03/25 00:51:06;;;;;;;4.13;1.50;;;;;;;-7.91;76.32;93321.08;1832129;77;21493;-70
2021/03/25 00:53:35;;;;;;;2.23;1.67;;;;;;;-7.97;76.47;93317.73;1845530;75;21050;-73
2021/03/25 00:56:04;;;;;;;2.77;1.87;;;;;;;-7.99;76.53;93317.75;1901522;75;21340;-71
2021/03/25 00:58:32;;;;;;;1.83;1.37;;;;;;;-8.01;76.59;93312.77;1840830;77;21078;-72
2021/03/25 01:01:00;;;;;;;2.10;1.90;;;;;;;-8.06;76.61;93314.91;1813033;78;21161;-71
2021/03/25 01:03:27;;;;;;;3.57;1.57;;;;;;;-8.10;76.62;93316.54;1817960;78;21214;-70
2021/03/25 01:05:55;;;;;;;2.67;2.07;;;;;;;-8.08;76.78;93319.70;1841327;75;21054;-72
2021/03/25 01:08:23;;;;;;;3.80;1.90;;;;;;;-7.99;76.72;93322.48;1897525;75;21775;-71
2021/03/25 01:10:57;;;;;;;32.57;12.60;;;;;;;-7.99;76.56;93319.85;1863097;76;21086;-70
2021/03/25 01:13:46;;;;;;;72.50;23.73;;;;;;;-8.01;76.53;93320.69;1901033;75;21021;-71
2021/03/25 01:16:19;;;;;;;65.43;24.10;;;;;;;-8.05;76.54;93322.28;1842366;76;21038;-71
2021/03/25 01:18:48;;;;;;;81.87;29.97;;;;;;;-8.09;76.42;93320.74;1864367;76;21062;-72
2021/03/25 01:21:17;;;;;;;70.70;26.23;;;;;;;-8.06;76.40;93320.72;1845001;76;22200;-71
2021/03/25 01:23:46;;;;;;;77.63;31.17;;;;;;;-8.11;76.27;93317.62;1837659;77;21080;-72
2021/03/25 01:26:13;;;;;;;79.57;30.47;;;;;;;-8.14;76.20;93319.49;1835619;75;21123;-73
2021/03/25 01:28:42;;;;;;;72.03;30.13;;;;;;;-8.14;76.06;93320.81;1853042;77;21039;-72
2021/03/25 01:31:10;;;;;;;69.17;27.13;;;;;;;-8.14;75.96;93317.39;1897544;75;21121;-72
2021/03/25 01:33:38;;;;;;;75.40;31.63;;;;;;;-8.19;76.08;93318.78;1886188;75;21051;-71
2021/03/25 01:36:08;;;;;;;74.97;29.00;;;;;;;-8.28;76.13;93330.99;1858295;76;21059;-72
2021/03/25 01:38:35;;;;;;;74.33;30.30;;;;;;;-8.28;76.32;93324.41;1833785;77;21038;-71
2021/03/25 01:41:04;;;;;;;65.30;26.63;;;;;;;-8.33;75.93;93312.05;1815638;79;21059;-72
2021/03/25 01:43:42;;;;;;;73.27;30.87;;;;;;;-8.39;76.27;93313.98;1778141;79;20989;-72
2021/03/25 01:46:22;;;;;;;75.37;29.40;;;;;;;-8.44;76.20;93317.22;1783093;78;22236;-72
2021/03/25 01:49:08;;;;;;;41.80;15.33;;;;;;;-8.46;76.67;93328.05;1818715;77;21105;-72
2021/03/25 01:51:53;;;;;;;27.70;11.97;;;;;;;-8.46;76.58;93320.66;1844696;76;21045;-73
2021/03/25 01:54:49;;;;;;;24.60;8.47;;;;;;;-8.63;76.73;93323.73;1830979;77;21602;-73
2021/03/25 01:58:06;;;;;;;16.83;7.17;;;;;;;-8.75;77.02;93329.38;1837438;77;21591;-71
2021/03/25 02:00:56;;;;;;;10.93;5.65;;;;;;;-8.80;77.33;93332.03;1815876;76;21210;-70
2021/03/25 02:03:58;;;;;;;7.00;3.33;;;;;;;-8.79;77.43;93328.36;1865576;76;21073;-74
2021/03/25 02:06:52;;;;;;;5.40;2.70;;;;;;;-8.79;77.50;93328.36;1848774;77;21054;-70
2021/03/25 02:09:55;;;;;;;6.07;3.57;;;;;;;-8.77;77.67;93330.17;1832983;78;21118;-70
2021/03/25 02:13:07;;;;;;;8.40;2.70;;;;;;;-8.78;77.51;93336.52;1824928;78;21122;-71
2021/03/25 02:16:02;;;;;;;11.07;2.67;;;;;;;-8.86;77.31;93338.44;1774548;78;21681;-70
2021/03/25 02:18:41;;;;;;;5.17;2.08;;;;;;;-9.07;77.45;93326.72;1812351;77;21149;-71
2021/03/25 02:21:51;;;;;;;2.73;1.50;;;;;;;-9.17;77.98;93331.30;1845458;76;21094;-71
2021/03/25 02:24:57;;;;;;;3.57;2.00;;;;;;;-9.30;78.03;93333.47;1781442;77;21134;-72
2021/03/25 02:28:06;;;;;;;4.50;2.43;;;;;;;-9.46;78.24;93336.49;1887607;74;21476;-73
2021/03/25 02:31:00;;;;;;;4.70;2.07;;;;;;;-9.58;78.79;93336.30;1837396;77;21346;-71
2021/03/25 02:33:28;;;;;;;5.20;2.03;;;;;;;-9.57;79.25;93343.12;1812095;78;21086;-72
2021/03/25 02:36:01;;;;;;;3.63;1.60;;;;;;;-9.54;79.19;93345.22;1830609;78;21645;-71
2021/03/25 02:38:35;;;;;;;3.67;2.33;;;;;;;-9.50;78.77;93339.41;1831915;78;21035;-73
2021/03/25 02:41:08;;;;;;;3.07;1.60;;;;;;;-9.62;78.69;93344.48;1842085;77;21050;-72
2021/03/25 02:44:03;;;;;;;3.50;1.90;;;;;;;-9.61;78.94;93344.73;1812109;76;22369;-72
2021/03/25 02:46:44;;;;;;;2.35;1.72;;;;;;;-9.57;78.78;93343.12;1856556;76;21543;-72
2021/03/25 02:49:15;;;;;;;26.67;9.20;;;;;;;-9.59;78.46;93339.19;1821693;76;21121;-70
2021/03/25 02:52:21;;;;;;;48.73;20.43;;;;;;;-9.59;78.52;93335.23;1851822;76;21114;-70
2021/03/25 02:54:51;;;;;;;65.73;23.07;;;;;;;-9.61;78.75;93326.30;1841603;76;21564;-72
2021/03/25 02:57:24;;;;;;;61.37;23.53;;;;;;;-9.58;78.83;93314.45;1866628;76;21283;-71
2021/03/25 02:59:57;;;;;;;53.92;23.65;;;;;;;-9.57;78.90;93310.75;1830428;78;21116;-73
2021/03/25 03:02:36;;;;;;;61.00;25.07;;;;;;;-9.61;78.80;93305.25;1817377;77;21050;-71
2021/03/25 03:05:10;;;;;;;49.03;17.57;;;;;;;-9.63;78.89;93313.93;1843161;77;21121;-72
2021/03/25 03:07:55;;;;;;;18.40;8.57;;;;;;;-9.63;78.43;93315.25;1832716;77;21620;-71
2021/03/25 03:10:29;;;;;;;11.47;5.57;;;;;;;-9.76;77.73;93316.40;1818311;78;21192;-71
2021/03/25 03:12:57;;;;;;;11.63;5.27;;;;;;;-10.05;77.74;93303.36;1826478;77;21094;-71
2021/03/25 03:15:29;;;;;;;5.77;3.60;;;;;;;-10.22;78.11;93305.56;1824941;77;21090;-72
2021/03/25 03:18:06;;;;;;;7.23;4.20;;;;;;;-10.34;78.73;93298.02;1840503;75;21074;-71
2021/03/25 03:20:49;;;;;;;10.97;4.17;;;;;;;-10.40;79.29;93308.80;1900811;75;21038;-71
2021/03/25 03:23:28;;;;;;;11.05;3.70;;;;;;;-10.48;79.79;93306.20;1833102;78;21492;-70
2021/03/25 03:25:58;;;;;;;7.83;3.10;;;;;;;-10.46;80.39;93308.02;1843826;77;21060;-72
2021/03/25 03:28:36;;;;;;;8.60;3.07;;;;;;;-10.43;80.26;93306.70;1886329;75;21066;-72
2021/03/25 03:31:08;;;;;;;2.57;2.10;;;;;;;-10.45;79.87;93309.62;1843636;76;21047;-71
2021/03/25 03:33:44;;;;;;;5.47;2.57;;;;;;;-10.43;79.87;93315.91;1827135;78;21166;-71
2021/03/25 03:36:22;;;;;;;4.15;2.55;;;;;;;-10.43;79.64;93308.02;1846213;75;21134;-73
2021/03/25 03:38:54;;;;;;;23.20;10.10;;;;;;;-10.43;79.44;93308.02;1876520;76;21103;-71
2021/03/25 03:41:32;;;;;;;46.23;19.83;;;;;;;-10.45;79.31;93307.52;1828986;78;21029;-72
2021/03/25 03:44:08;;;;;;;48.23;20.23;;;;;;;-10.45;79.46;93303.58;1831820;77;21096;-70
2021/03/25 03:46:36;;;;;;;50.77;21.37;;;;;;;-10.50;79.56;93306.20;1880364;75;21076;-70
2021/03/25 03:49:19;;;;;;;27.00;13.07;;;;;;;-10.49;79.64;93323.03;1872233;75;21741;-71
2021/03/25 03:51:55;;;;;;;15.63;6.30;;;;;;;-10.45;79.48;93323.29;1842357;77;21538;-71
2021/03/25 03:54:24;;;;;;;4.50;2.73;;;;;;;-10.44;79.19;93322.23;1859883;74;21025;-70
2021/03/25 03:57:00;;;;;;;5.93;2.57;;;;;;;-10.45;79.16;93320.13;1874576;76;21100;-72
2021/03/25 03:59:50;;;;;;;8.43;3.00;;;;;;;-10.51;78.75;93315.93;1814917;79;21073;-70
2021/03/25 04:03:03;;;;;;;6.33;2.70;;;;;;;-10.61;78.80;93319.36;1846637;77;22028;-70
2021/03/25 04:05:39;;;;;;;31.10;12.00;;;;;;;-10.61;79.12;93321.98;1822024;77;21058;-70
2021/03/25 04:08:29;;;;;;;23.13;8.20;;;;;;;-10.59;79.17;93322.52;1802421;76;21176;-70
2021/03/25 04:11:19;;;;;;;12.90;4.40;;;;;;;-10.68;78.79;93318.88;1855133;76;21129;-70
2021/03/25 04:13:56;;;;;;;6.20;3.10;;;;;;;-10.80;78.90;93319.66;1827587;77;21066;-70
2021/03/25 04:16:25;;;;;;;24.80;9.43;;;;;;;-10.86;79.03;93320.74;1864130;76;22125;-71
2021/03/25 04:19:15;;;;;;;19.17;7.90;;;;;;;-10.87;79.24;93323.08;1817944;78;21046;-72
2021/03/25 04:22:07;;;;;;;41.37;15.57;;;;;;;-10.77;79.46;93317.83;1843363;77;27011;-74
2021/03/25 04:24:51;;;;;;;55.30;19.63;;;;;;;-10.77;79.18;93327.80;1737214;78;21581;-72
2021/03/25 04:27:23;;;;;;;59.20;18.45;;;;;;;-10.75;79.07;93326.24;1773556;80;21380;-71
2021/03/25 04:29:58;;;;;;;53.37;17.33;;;;;;;-10.69;78.95;93329.63;1762925;79;21511;-72
2021/03/25 04:32:25;;;;;;;;;;;;;;;-10.64;78.52;93328.30;1820123;79;21102;-72
2021/03/25 04:34:53;;;;;;;14.80;5.93;;;;;;;-10.59;78.37;93333.56;1832114;75;20624;-72
2021/03/25 04:37:23;;;;;;;6.87;3.30;;;;;;;-10.60;77.93;93328.05;1892320;75;20876;-72
2021/03/25 04:39:50;;;;;;;12.33;5.43;;;;;;;-10.76;77.45;93328.05;1856092;75;21021;-73
2021/03/25 04:42:18;;;;;;;8.90;3.70;;;;;;;-10.86;77.64;93333.34;1838519;77;21003;-73
2021/03/25 04:45:00;;;;;;;8.67;4.70;;;;;;;-10.95;77.99;93330.19;1864743;75;21094;-70
2021/03/25 04:47:31;;;;;;;10.20;4.90;;;;;;;-10.97;78.14;93333.63;1861928;75;21159;-70
2021/03/25 04:50:22;;;;;;;10.40;4.00;;;;;;;-10.93;78.47;93332.05;1802662;75;21046;-73
2021/03/25 04:53:09;;;;;;;10.00;2.90;;;;;;;-10.85;78.55;93335.44;1882727;75;21725;-73
2021/03/25 04:55:37;;;;;;;3.83;2.90;;;;;;;-10.73;78.13;93340.41;1815389;75;21572;-72
2021/03/25 04:58:09;;;;;;;8.50;3.77;;;;;;;-10.74;77.66;93336.22;1892406;75;21018;-71
2021/03/25 05:00:40;;;;;;;10.90;3.90;;;;;;;-10.75;77.76;93340.70;1827739;75;21138;-71
2021/03/25 05:03:12;;;;;;;4.13;2.40;;;;;;;-10.66;77.71;93346.19;1866379;75;21101;-72
2021/03/25 05:05:40;;;;;;;5.37;2.63;;;;;;;-10.66;77.06;93344.34;1857873;75;21161;-71
2021/03/25 05:08:13;;;;;;;7.13;3.13;;;;;;;-10.76;77.01;93338.56;1834925;75;21159;-70
2021/03/25 05:11:09;;;;;;;7.40;2.23;;;;;;;-10.67;77.56;93348.03;1890968;75;21026;-71
2021/03/25 05:13:43;;;;;;;8.33;2.70;;;;;;;-10.16;78.73;93349.17;1855245;77;21037;-70
2021/03/25 05:16:31;;;;;;;14.90;5.70;;;;;;;-9.28;78.94;93353.50;1818342;79;21141;-71
2021/03/25 05:19:17;;;;;;;14.30;7.00;;;;;;;-8.54;77.61;93349.73;1818105;78;21351;-71
2021/03/25 05:22:10;;;;;;;34.27;15.77;;;;;;;-7.84;75.39;93350.56;1883137;75;21108;-71
2021/03/25 05:24:43;;;;;;;46.20;21.70;;;;;;;-7.23;73.09;93345.80;1862593;75;21568;-72
2021/03/25 05:27:40;;;;;;;47.63;21.87;;;;;;;-6.63;71.10;93349.91;1841875;77;21097;-70
2021/03/25 05:30:13;;;;;;;56.87;24.37;;;;;;;-6.04;69.07;93349.44;1820929;77;21162;-72
2021/03/25 05:32:44;;;;;;;43.17;22.67;;;;;;;-5.38;66.26;93350.74;1821589;78;22247;-71
2021/03/25 05:35:19;;;;;;;39.27;20.53;;;;;;;-4.89;64.07;93350.47;1838973;77;21093;-71
2021/03/25 05:37:47;;;;;;;44.33;21.93;;;;;;;-4.54;62.00;93354.18;1853189;77;21565;-71
2021/03/25 05:40:46;;;;;;;58.27;31.83;;;;;;;-4.21;59.71;93357.91;1839569;78;21539;-72
2021/03/25 05:43:34;;;;;;;56.30;29.40;;;;;;;-4.02;57.81;93367.77;1792607;79;21036;-71
2021/03/25 05:46:16;;;;;;;64.63;32.60;;;;;;;-3.83;57.79;93365.44;1794669;80;21863;-71
2021/03/25 05:48:52;;;;;;;62.20;34.30;;;;;;;-3.56;56.71;93364.44;1843854;77;21042;-71
2021/03/25 05:51:45;;;;;;;58.80;34.20;;;;;;;-3.15;55.72;93361.41;1823835;77;21024;-70
2021/03/25 05:54:47;;;;;;;48.80;23.70;;;;;;;-2.87;54.51;93360.58;1809250;78;21631;-71
2021/03/25 05:57:41;;;;;;;36.70;20.03;;;;;;;-2.71;54.51;93371.53;1845683;76;21561;-70
2021/03/25 06:00:26;;;;;;;43.37;22.90;;;;;;;-2.42;53.45;93363.47;1838731;76;21174;-70
2021/03/25 06:03:04;;;;;;;40.35;23.20;;;;;;;-2.35;51.85;93363.23;1836410;76;21569;-70
2021/03/25 06:05:32;;;;;;;49.58;26.30;;;;;;;-2.39;51.42;93367.63;1859727;76;21043;-70
2021/03/25 06:08:41;;;;;;;43.50;24.72;;;;;;;-2.45;51.82;93364.32;1829279;78;21058;-74
2021/03/25 06:11:48;;;;;;;48.60;25.77;;;;;;;-2.30;51.92;93360.39;1826644;75;21087;-70
2021/03/25 06:14:27;;;;;;;56.83;31.27;;;;;;;-1.94;51.33;93363.23;1865540;76;21700;-70
2021/03/25 06:16:58;;;;;;;43.78;26.62;;;;;;;-1.64;50.84;93367.30;1829475;78;21141;-73
2021/03/25 06:19:58;;;;;;;29.60;16.55;;;;;;;-1.42;50.42;93372.94;1835371;77;21074;-71
2021/03/25 06:22:54;;;;;;;23.25;11.30;;;;;;;-1.24;50.27;93367.75;1800509;79;20925;-71
2021/03/25 06:25:52;;;;;;;17.25;8.18;;;;;;;-0.94;50.31;93369.86;1811314;79;21020;-73
2021/03/25 06:28:28;;;;;;;22.02;10.48;;;;;;;-0.38;49.86;93376.27;1800886;79;21785;-70
2021/03/25 06:31:29;;;;;;;24.10;11.57;;;;;;;0.02;49.21;93371.76;1815155;78;21140;-71
2021/03/25 06:34:15;;;;;;;15.95;7.60;;;;;;;0.27;47.72;93367.27;1823848;76;21103;-70
2021/03/25 06:37:30;;;;;;;14.33;7.33;;;;;;;0.31;47.58;93364.16;1853113;76;21137;-70
2021/03/25 06:40:21;;;;;;;12.20;4.85;;;;;;;0.23;48.03;93360.46;1837885;76;21067;-73
2021/03/25 06:43:12;;;;;;;15.95;6.97;;;;;;;0.54;47.87;93359.17;1815210;78;21198;-70
2021/03/25 06:45:48;;;;;;;13.50;6.10;;;;;;;0.67;47.62;93362.84;1853004;76;21493;-70
2021/03/25 06:48:43;;;;;;;17.02;8.38;;;;;;;0.49;47.48;93358.83;1851664;76;21161;-71
2021/03/25 06:51:30;;;;;;;15.70;7.78;;;;;;;0.33;47.90;93354.66;1824378;78;21477;-70
2021/03/25 06:54:11;;;;;;;20.20;9.90;;;;;;;0.05;48.41;93355.06;1837267;76;21110;-69
2021/03/25 06:56:45;;;;;;;15.50;7.05;;;;;;;-0.04;48.66;93348.45;1853884;76;21451;-70
2021/03/25 06:59:31;;;;;;;13.35;6.83;;;;;;;-0.05;48.59;93350.34;1829147;78;21146;-71
2021/03/25 07:02:11;;;;;;;15.00;5.67;;;;;;;0.18;48.88;93348.06;1806498;79;21037;-69
2021/03/25 07:04:43;;;;;;;12.80;4.85;;;;;;;0.44;48.24;93349.67;1791905;79;21096;-69
2021/03/25 07:07:34;;;;;;;14.40;6.15;;;;;;;0.75;48.67;93351.02;1805371;78;21485;-69
2021/03/25 07:10:03;;;;;;;10.18;4.72;;;;;;;0.99;47.61;93347.02;1797442;79;21490;-71
2021/03/25 07:12:34;;;;;;;10.45;5.17;;;;;;;1.07;48.42;93342.65;1805195;79;21473;-71
2021/03/25 07:15:02;;;;;;;10.23;4.75;;;;;;;1.05;47.91;93338.17;1826098;75;21094;-71
2021/03/25 07:17:40;;;;;;;9.80;5.30;;;;;;;0.98;48.76;93346.80;1869287;76;21035;-71
2021/03/25 07:20:19;;;;;;;10.72;4.85;;;;;;;0.93;48.60;93337.07;1823025;78;21043;-72
2021/03/25 07:23:11;;;;;;;8.90;4.60;;;;;;;0.93;49.03;93341.65;1877424;76;21188;-71
2021/03/25 07:25:43;;;;;;;11.22;4.83;;;;;;;1.01;49.31;93336.73;1848125;76;21121;-72
2021/03/25 07:28:19;;;;;;;9.28;4.30;;;;;;;1.11;48.58;93338.18;1843892;77;21058;-68
2021/03/25 07:30:52;;;;;;;7.70;4.35;;;;;;;1.23;48.02;93340.05;1821508;78;21112;-71
2021/03/25 07:33:22;;;;;;;15.70;6.78;;;;;;;1.31;47.83;93336.45;1821621;77;21477;-74
2021/03/25 07:35:54;;;;;;;15.80;7.95;;;;;;;1.39;47.55;93341.70;1851927;76;22228;-71
2021/03/25 07:38:25;;;;;;;12.18;5.00;;;;;;;1.53;48.59;93336.52;1815812;79;21062;-71
2021/03/25 07:41:23;;;;;;;14.90;4.10;;;;;;;1.77;46.98;93332.42;1798996;79;21044;-72
2021/03/25 07:44:04;;;;;;;8.18;4.40;;;;;;;1.90;47.20;93338.50;1811456;79;21135;-73
2021/03/25 07:46:44;;;;;;;8.45;4.87;;;;;;;2.29;46.46;93334.72;1864540;76;21129;-73
2021/03/25 07:49:27;;;;;;;12.07;4.35;;;;;;;2.53;45.18;93336.48;1854082;76;21772;-71
2021/03/25 07:52:05;;;;;;;10.18;4.97;;;;;;;2.74;45.44;93332.19;1836403;77;21118;-72
2021/03/25 07:54:39;;;;;;;11.53;4.85;;;;;;;2.85;44.47;93334.56;1850086;76;21125;-68
2021/03/25 07:57:20;;;;;;;11.22;5.72;;;;;;;2.99;43.92;93327.41;1867826;76;21125;-72
2021/03/25 07:59:54;;;;;;;9.70;5.80;;;;;;;3.46;43.11;93324.61;1845684;77;21703;-72
2021/03/25 08:02:26;;;;;;;12.73;6.08;;;;;;;3.46;43.11;93324.61;1839667;78;22494;-74
2021/03/25 08:05:13;;;;;;;18.57;8.08;;;;;;;3.73;43.24;93332.84;1829226;78;21229;-71
2021/03/25 08:07:41;;;;;;;15.30;8.27;;;;;;;3.96;43.02;93327.52;1815931;78;21074;-74
2021/03/25 08:10:21;;;;;;;16.73;7.87;;;;;;;4.29;41.40;93333.15;1822943;78;21668;-74
2021/03/25 08:13:23;;;;;;;13.63;7.43;;;;;;;4.65;41.12;93335.67;1853480;77;22701;-73
2021/03/25 08:15:59;;;;;;;10.80;6.42;;;;;;;4.92;41.54;93337.27;1803314;79;21059;-71
2021/03/25 08:18:44;;;;;;;6.17;3.85;;;;;;;5.32;39.86;93339.42;1846649;77;21631;-72
2021/03/25 08:22:06;;;;;;;12.33;5.50;;;;;;;5.61;36.98;93331.73;1833868;77;21150;-69
2021/03/25 08:24:50;;;;;;;10.30;5.28;;;;;;;6.03;38.49;93331.52;1886445;75;21008;-71
2021/03/25 08:27:58;;;;;;;9.55;5.40;;;;;;;6.50;37.15;93331.42;1873701;74;21169;-71
2021/03/25 08:30:48;;;;;;;6.03;4.50;;;;;;;7.04;37.53;93329.22;1879980;76;21082;-70
2021/03/25 08:33:40;;;;;;;6.15;4.40;;;;;;;7.26;34.74;93322.81;1880341;76;22708;-73
2021/03/25 08:36:38;;;;;;;7.65;3.72;;;;;;;7.51;34.96;93322.19;1904791;74;20978;-73
2021/03/25 08:39:40;;;;;;;6.25;4.08;;;;;;;7.60;34.41;93322.64;1890876;74;21585;-73
2021/03/25 08:42:38;;;;;;;4.87;3.92;;;;;;;7.58;33.21;93326.87;1871266;76;21185;-74
2021/03/25 08:45:38;;;;;;;6.65;4.42;;;;;;;7.73;33.96;93323.08;1870516;76;21174;-72
2021/03/25 08:48:27;;;;;;;5.47;4.30;;;;;;;8.06;34.43;93315.89;1851002;76;21249;-74
2021/03/25 08:51:07;;;;;;;5.17;3.65;;;;;;;8.29;31.54;93319.06;1833078;78;21086;-74
2021/03/25 08:54:21;;;;;;;6.65;4.20;;;;;;;7.94;30.60;93312.95;1833380;78;21625;-73
2021/03/25 08:57:10;;;;;;;7.62;4.62;;;;;;;7.53;33.28;93323.37;1783414;78;21150;-73
2021/03/25 08:59:53;;;;;;;4.78;3.85;;;;;;;7.78;33.59;93318.09;1848052;75;21140;-72
2021/03/25 09:02:43;;;;;;;6.72;4.22;;;;;;;8.17;33.49;93314.00;1898751;75;21784;-73
2021/03/25 09:05:28;;;;;;;5.70;4.22;;;;;;;8.51;32.63;93311.80;1871161;76;21496;-73
2021/03/25 09:07:58;;;;;;;7.62;5.60;;;;;;;8.68;30.13;93307.55;1871562;76;21058;-75
2021/03/25 09:10:46;;;;;;;7.60;4.92;;;;;;;8.59;30.45;93311.23;1871614;76;21039;-75
2021/03/25 09:13:23;;;;;;;6.45;4.47;;;;;;;8.43;30.77;93311.01;1910445;74;21460;-72
2021/03/25 09:15:55;;;;;;;6.75;4.22;;;;;;;8.19;32.10;93307.02;1876111;75;21050;-73
2021/03/25 09:18:29;;;;;;;6.75;4.67;;;;;;;8.25;33.35;93306.86;1847657;76;21059;-73
2021/03/25 09:21:00;;;;;;;9.70;5.00;;;;;;;8.44;32.04;93303.65;1833513;76;21596;-73
2021/03/25 09:23:35;;;;;;;7.10;4.78;;;;;;;8.60;32.29;93304.64;1801729;79;21698;-73
2021/03/25 09:26:15;;;;;;;;;;;;;;;8.61;32.51;93297.47;1814993;77;21058;-73
2021/03/25 09:28:51;;;;;;;8.30;4.30;;;;;;;8.67;32.20;93303.30;1836413;78;21353;-73
2021/03/25 09:31:22;;;;;;;4.75;3.83;;;;;;;8.80;30.85;93309.11;1876822;76;21066;-73
2021/03/25 09:34:02;;;;;;;5.90;4.10;;;;;;;8.79;29.04;93302.92;1879320;75;21106;-73
2021/03/25 09:36:39;;;;;;;7.22;4.50;;;;;;;8.46;29.60;93304.02;1870012;76;21109;-74
2021/03/25 09:39:31;;;;;;;5.78;3.75;;;;;;;7.98;29.92;93302.33;1894315;75;21122;-74
2021/03/25 09:42:04;;;;;;;4.75;3.52;;;;;;;7.81;30.60;93301.66;1894454;75;21444;-74
2021/03/25 09:44:38;;;;;;;6.17;4.22;;;;;;;7.88;31.74;93290.86;1869740;76;21062;-74
2021/03/25 09:47:23;;;;;;;4.95;3.90;;;;;;;8.09;30.11;93300.23;1875638;75;21039;-73
2021/03/25 09:49:58;;;;;;;6.37;3.65;;;;;;;8.04;30.61;93300.78;1910866;75;21117;-74
2021/03/25 09:52:30;;;;;;;7.78;4.17;;;;;;;7.96;29.82;93297.85;1839465;78;21065;-74
2021/03/25 09:55:04;;;;;;;5.50;4.12;;;;;;;7.61;29.59;93307.95;1846088;76;21204;-73
2021/03/25 09:57:40;;;;;;;4.75;3.60;;;;;;;7.23;29.74;93298.45;1887975;75;21069;-73
2021/03/25 10:00:28;;;;;;;5.10;3.70;;;;;;;6.99;31.79;93293.81;1893699;75;21122;-73
2021/03/25 10:02:59;;;;;;;6.50;3.98;;;;;;;6.94;32.95;93300.16;1873401;76;21192;-74
2021/03/25 10:05:35;;;;;;;7.20;4.22;;;;;;;6.86;30.54;93295.86;1874980;76;21225;-73
2021/03/25 10:08:15;;;;;;;5.67;3.72;;;;;;;6.61;31.07;93291.00;1873355;75;21359;-73
2021/03/25 10:10:51;;;;;;;4.20;3.20;;;;;;;6.54;31.66;93290.94;1910673;75;21046;-74
2021/03/25 10:13:40;;;;;;;4.22;3.60;;;;;;;6.39;32.60;93283.27;1875422;75;21177;-74
2021/03/25 10:16:42;;;;;;;7.12;4.03;;;;;;;6.07;31.16;93291.06;1904653;74;21567;-73
2021/03/25 10:19:11;;;;;;;6.42;4.25;;;;;;;6.02;33.68;93286.00;1878642;75;21148;-73
2021/03/25 10:21:59;;;;;;;5.53;3.77;;;;;;;6.13;33.39;93286.90;1896624;75;21633;-74
2021/03/25 10:24:38;;;;;;;4.97;3.90;;;;;;;6.07;31.43;93288.36;1890436;75;21153;-73
2021/03/25 10:27:32;;;;;;;6.92;3.60;;;;;;;5.99;32.29;93292.14;1859466;76;21145;-74
2021/03/25 10:30:21;;;;;;;7.75;3.58;;;;;;;6.05;33.66;93292.77;1765898;77;21112;-73
2021/03/25 10:32:48;;;;;;;8.10;4.00;;;;;;;5.88;32.17;93285.23;1783915;79;21164;-74
2021/03/25 10:35:29;;;;;;;6.53;3.30;;;;;;;5.60;33.29;93297.80;1808727;77;21793;-74
2021/03/25 10:37:59;;;;;;;5.92;3.25;;;;;;;5.50;31.53;93285.74;1842897;77;21172;-73
2021/03/25 10:40:37;;;;;;;6.90;3.52;;;;;;;5.34;32.37;93291.86;1811858;76;21060;-74
2021/03/25 10:43:14;;;;;;;5.83;3.50;;;;;;;5.31;33.81;93285.30;1855432;76;21107;-76
2021/03/25 10:45:52;;;;;;;9.28;4.00;;;;;;;5.47;32.27;93289.16;1844384;77;21149;-74
2021/03/25 10:48:40;;;;;;;4.87;3.12;;;;;;;5.39;31.85;93289.44;1840087;77;21194;-74
2021/03/25 10:51:16;;;;;;;5.25;3.35;;;;;;;5.25;32.78;93288.09;1811263;78;21171;-74
2021/03/25 10:53:54;;;;;;;8.33;4.58;;;;;;;5.28;32.46;93286.59;1802865;77;21597;-77
2021/03/25 10:56:29;;;;;;;7.55;3.67;;;;;;;5.37;32.35;93287.09;1849999;75;21122;-72
2021/03/25 10:59:18;;;;;;;6.10;3.47;;;;;;;5.09;31.52;93284.80;1875385;76;21054;-76
2021/03/25 11:01:56;;;;;;;11.53;3.95;;;;;;;4.72;31.74;93287.31;1846493;76;21224;-75
2021/03/25 11:04:30;;;;;;;5.28;3.35;;;;;;;4.55;32.40;93279.14;1865090;76;21057;-74
2021/03/25 11:07:24;;;;;;;6.25;4.10;;;;;;;4.67;34.84;93266.85;1826440;76;21171;-74
2021/03/25 11:09:59;;;;;;;7.58;3.83;;;;;;;4.90;35.38;93270.85;1821866;77;21139;-75
2021/03/25 11:12:31;;;;;;;8.68;4.95;;;;;;;5.15;34.66;93263.11;1819789;77;21147;-75
2021/03/25 11:15:04;;;;;;;11.68;3.77;;;;;;;5.26;33.56;93265.38;1828132;77;22089;-74
2021/03/25 11:17:44;;;;;;;7.03;3.43;;;;;;;5.29;33.31;93259.27;1797944;79;21172;-76
2021/03/25 11:20:19;;;;;;;9.45;4.25;;;;;;;5.30;33.42;93261.38;1807632;78;21586;-75
2021/03/25 11:22:46;;;;;;;7.50;3.80;;;;;;;5.35;33.44;93256.46;1876233;76;21110;-72
2021/03/25 11:25:23;;;;;;;8.23;4.10;;;;;;;5.39;34.24;93255.16;1835755;76;21079;-75
2021/03/25 11:27:50;;;;;;;10.78;4.05;;;;;;;5.54;33.40;93258.23;1845936;76;21383;-74
2021/03/25 11:30:39;;;;;;;7.17;3.67;;;;;;;5.74;34.79;93256.73;1865335;76;21108;-74
2021/03/25 11:33:33;;;;;;;8.65;3.77;;;;;;;5.92;33.83;93259.09;1842569;75;21124;-75
2021/03/25 11:36:05;;;;;;;7.85;3.80;;;;;;;6.11;33.66;93258.13;1862454;76;21062;-75
2021/03/25 11:38:34;;;;;;;9.10;4.25;;;;;;;6.12;33.96;93252.92;1840716;77;21027;-75
2021/03/25 11:41:15;;;;;;;7.80;3.83;;;;;;;6.16;33.66;93255.09;1807329;79;20939;-75
2021/03/25 11:43:53;;;;;;;13.35;6.00;;;;;;;6.19;32.16;93247.60;1803460;79;21503;-75
2021/03/25 11:46:45;;;;;;;8.53;4.62;;;;;;;6.06;32.92;93243.62;1798532;77;21081;-75
2021/03/25 11:49:19;;;;;;;9.23;4.92;;;;;;;6.02;33.16;93241.47;1813559;78;21010;-73
2021/03/25 11:52:00;;;;;;;7.30;4.85;;;;;;;5.93;33.82;93247.72;1826752;76;21142;-76
2021/03/25 11:54:37;;;;;;;9.65;4.03;;;;;;;5.82;31.84;93244.30;1868018;76;22109;-75
2021/03/25 11:57:33;;;;;;;7.33;4.28;;;;;;;5.76;34.82;93246.36;1860156;76;21091;-75
2021/03/25 12:00:18;;;;;;;8.85;4.12;;;;;;;5.76;32.63;93245.02;1830737;77;21217;-75
2021/03/25 12:02:47;;;;;;;4.87;3.27;;;;;;;5.67;34.76;93240.46;1842926;77;21034;-74
2021/03/25 12:05:36;;;;;;;7.62;4.22;;;;;;;5.68;34.35;93236.06;1835203;78;21055;-74
2021/03/25 12:08:15;;;;;;;7.72;3.80;;;;;;;5.71;33.97;93236.65;1826630;77;21798;-74
2021/03/25 12:10:44;;;;;;;10.55;3.77;;;;;;;5.63;32.05;93242.34;1803674;78;20993;-73
2021/03/25 12:13:12;;;;;;;8.20;4.53;;;;;;;5.42;32.33;93238.25;1846701;76;21086;-74
2021/03/25 12:15:41;;;;;;;11.43;4.90;;;;;;;5.36;34.41;93235.66;1864219;76;21141;-71
2021/03/25 12:18:28;;;;;;;6.80;4.25;;;;;;;5.46;34.46;93234.25;1823186;77;21248;-74
2021/03/25 12:20:59;;;;;;;6.67;4.47;;;;;;;5.56;34.24;93234.94;1843389;77;22148;-75
2021/03/25 12:23:29;;;;;;;7.97;4.47;;;;;;;5.55;33.49;93231.47;1835078;78;21493;-74
2021/03/25 12:26:02;;;;;;;6.80;3.95;;;;;;;5.47;34.09;93227.71;1875810;76;21117;-74
2021/03/25 12:28:30;;;;;;;8.03;4.35;;;;;;;5.46;33.20;93220.77;1851236;76;21114;-75
2021/03/25 12:31:01;;;;;;;7.20;4.20;;;;;;;5.46;33.50;93224.81;1840100;77;21556;-76